PWSweather.com
Personal Weather Stations
Station Observations
PALMY
Palmerston NorthNZ 4410

Palmerston NorthNZ 4410

Lat: -40.349104, Lon: 175.615094

Elevation: 75.4

Station Type: WeatherDuino Pro2

http://palmyweather.co.nz

High Low Average
Temperature 75.3°F24.1°C 64.0°F17.8°C 68.8°F20.4°C
Dew Point 64.7°F18.2°C 55.5°F13.1°C 61.4°F16.3°C
Winds 8.5 mph 13.7 kmh Calm Calm 4.0 mph WSW6.4 kmh WSW
Wind Gusts 30.0 mph48.3 kmh -- 9.0 mph14.5 kmh
Humidity 95% 53% 78%
Pressure 29.91 in1012.9 mb 29.84 in1010.5 mb -
Precipitation 0.00 in0.0 mm - -
Hour Temp Dew Point Humidity Winds Wind Gusts Pressure Precip Precip Rate Daily Precip Total
12:00 AM 65.6°F18.7°C 62.6°F17.0°C 90% 1.8 mph SW2.9 kmh SW 6.3 mph10.1 kmh 29.91 in1012.9 mb 0.00 in0.0 mm 0.00 in0.0 mm 0.00 in0.0 mm
12:05 AM 65.4°F18.6°C 62.4°F16.9°C 90% 1.3 mph SW2.1 kmh SW 11.6 mph18.7 kmh 29.91 in1012.9 mb 0.00 in0.0 mm 0.00 in0.0 mm 0.00 in0.0 mm
12:10 AM 65.4°F18.6°C 62.4°F16.9°C 90% 2.2 mph WSW3.5 kmh WSW 11.6 mph18.7 kmh 29.91 in1012.9 mb 0.00 in0.0 mm 0.00 in0.0 mm 0.00 in0.0 mm
12:15 AM 65.4°F18.6°C 62.1°F16.7°C 89% 2.7 mph WSW4.3 kmh WSW 7.2 mph11.6 kmh 29.91 in1012.9 mb 0.00 in0.0 mm 0.00 in0.0 mm 0.00 in0.0 mm
12:20 AM 65.4°F18.6°C 62.4°F16.9°C 90% 2.2 mph SW3.5 kmh SW 5.4 mph8.7 kmh 29.91 in1012.9 mb 0.00 in0.0 mm 0.00 in0.0 mm 0.00 in0.0 mm
12:25 AM 65.6°F18.7°C 62.6°F17.0°C 90% 2.2 mph SW3.5 kmh SW 4.5 mph7.2 kmh 29.91 in1012.9 mb 0.00 in0.0 mm 0.00 in0.0 mm 0.00 in0.0 mm
12:30 AM 65.6°F18.7°C 62.3°F16.8°C 89% 1.8 mph SW2.9 kmh SW 4.0 mph6.4 kmh 29.91 in1012.9 mb 0.00 in0.0 mm 0.00 in0.0 mm 0.00 in0.0 mm
12:35 AM 65.6°F18.7°C 62.3°F16.8°C 89% 2.7 mph SW4.3 kmh SW 5.4 mph8.7 kmh 29.91 in1012.9 mb 0.00 in0.0 mm 0.00 in0.0 mm 0.00 in0.0 mm
12:40 AM 65.6°F18.7°C 62.3°F16.8°C 89% 2.7 mph WSW4.3 kmh WSW 5.4 mph8.7 kmh 29.91 in1012.9 mb 0.00 in0.0 mm 0.00 in0.0 mm 0.00 in0.0 mm
12:45 AM 65.6°F18.7°C 62.3°F16.8°C 89% 2.7 mph WSW4.3 kmh WSW 5.4 mph8.7 kmh 29.91 in1012.9 mb 0.00 in0.0 mm 0.00 in0.0 mm 0.00 in0.0 mm
12:50 AM 65.4°F18.6°C 62.1°F16.7°C 89% 2.2 mph WSW3.5 kmh WSW 4.5 mph7.2 kmh 29.91 in1012.9 mb 0.00 in0.0 mm 0.00 in0.0 mm 0.00 in0.0 mm
12:55 AM 65.6°F18.7°C 62.3°F16.8°C 89% 2.2 mph WSW3.5 kmh WSW 4.5 mph7.2 kmh 29.91 in1012.9 mb 0.00 in0.0 mm 0.00 in0.0 mm 0.00 in0.0 mm
01:00 AM 65.4°F18.6°C 62.1°F16.7°C 89% 1.8 mph SW2.9 kmh SW 4.5 mph7.2 kmh 29.91 in1012.9 mb 0.00 in0.0 mm 0.00 in0.0 mm 0.00 in0.0 mm
01:05 AM 65.3°F18.5°C 62.3°F16.8°C 90% 1.8 mph SW2.9 kmh SW 4.5 mph7.2 kmh 29.91 in1012.9 mb 0.00 in0.0 mm 0.00 in0.0 mm 0.00 in0.0 mm
01:10 AM 65.1°F18.4°C 62.1°F16.7°C 90% 1.3 mph WSW2.1 kmh WSW 3.6 mph5.8 kmh 29.90 in1012.5 mb 0.00 in0.0 mm 0.00 in0.0 mm 0.00 in0.0 mm
01:15 AM 65.1°F18.4°C 62.1°F16.7°C 90% 1.3 mph W2.1 kmh W 4.0 mph6.4 kmh 29.90 in1012.5 mb 0.00 in0.0 mm 0.00 in0.0 mm 0.00 in0.0 mm
01:20 AM 65.1°F18.4°C 62.1°F16.7°C 90% 1.3 mph W2.1 kmh W 4.0 mph6.4 kmh 29.90 in1012.5 mb 0.00 in0.0 mm 0.00 in0.0 mm 0.00 in0.0 mm
01:25 AM 65.1°F18.4°C 62.1°F16.7°C 90% 1.8 mph W2.9 kmh W 3.6 mph5.8 kmh 29.90 in1012.5 mb 0.00 in0.0 mm 0.00 in0.0 mm 0.00 in0.0 mm
01:30 AM 64.9°F18.3°C 61.9°F16.6°C 90% 1.8 mph W2.9 kmh W 4.0 mph6.4 kmh 29.91 in1012.9 mb 0.00 in0.0 mm 0.00 in0.0 mm 0.00 in0.0 mm
01:35 AM 65.1°F18.4°C 62.1°F16.7°C 90% 2.2 mph W3.5 kmh W 5.4 mph8.7 kmh 29.91 in1012.9 mb 0.00 in0.0 mm 0.00 in0.0 mm 0.00 in0.0 mm
01:40 AM 64.9°F18.3°C 61.9°F16.6°C 90% 1.8 mph W2.9 kmh W 5.4 mph8.7 kmh 29.90 in1012.5 mb 0.00 in0.0 mm 0.00 in0.0 mm 0.00 in0.0 mm
01:45 AM 64.9°F18.3°C 61.9°F16.6°C 90% 1.8 mph W2.9 kmh W 3.6 mph5.8 kmh 29.90 in1012.5 mb 0.00 in0.0 mm 0.00 in0.0 mm 0.00 in0.0 mm
01:50 AM 64.9°F18.3°C 61.9°F16.6°C 90% 1.8 mph W2.9 kmh W 4.0 mph6.4 kmh 29.90 in1012.5 mb 0.00 in0.0 mm 0.00 in0.0 mm 0.00 in0.0 mm
01:55 AM 64.9°F18.3°C 61.9°F16.6°C 90% 2.2 mph W3.5 kmh W 4.0 mph6.4 kmh 29.90 in1012.5 mb 0.00 in0.0 mm 0.00 in0.0 mm 0.00 in0.0 mm
02:00 AM 64.7°F18.2°C 61.7°F16.5°C 90% 1.8 mph W2.9 kmh W 3.6 mph5.8 kmh 29.90 in1012.5 mb 0.00 in0.0 mm 0.00 in0.0 mm 0.00 in0.0 mm
02:05 AM 64.9°F18.3°C 61.9°F16.6°C 90% 1.3 mph W2.1 kmh W 3.6 mph5.8 kmh 29.90 in1012.5 mb 0.00 in0.0 mm 0.00 in0.0 mm 0.00 in0.0 mm
02:10 AM 64.9°F18.3°C 61.9°F16.6°C 90% 1.3 mph W2.1 kmh W 3.1 mph5.0 kmh 29.89 in1012.2 mb 0.00 in0.0 mm 0.00 in0.0 mm 0.00 in0.0 mm
02:15 AM 64.9°F18.3°C 61.9°F16.6°C 90% 1.3 mph W2.1 kmh W 3.6 mph5.8 kmh 29.89 in1012.2 mb 0.00 in0.0 mm 0.00 in0.0 mm 0.00 in0.0 mm
02:20 AM 64.9°F18.3°C 61.9°F16.6°C 90% 1.3 mph WNW2.1 kmh WNW 3.6 mph5.8 kmh 29.90 in1012.5 mb 0.00 in0.0 mm 0.00 in0.0 mm 0.00 in0.0 mm
02:25 AM 64.9°F18.3°C 61.9°F16.6°C 90% 1.3 mph WNW2.1 kmh WNW 3.1 mph5.0 kmh 29.90 in1012.5 mb 0.00 in0.0 mm 0.00 in0.0 mm 0.00 in0.0 mm
02:30 AM 64.9°F18.3°C 61.9°F16.6°C 90% 1.3 mph W2.1 kmh W 3.1 mph5.0 kmh 29.89 in1012.2 mb 0.00 in0.0 mm 0.00 in0.0 mm 0.00 in0.0 mm
02:35 AM 64.9°F18.3°C 61.9°F16.6°C 90% 1.3 mph W2.1 kmh W 3.6 mph5.8 kmh 29.89 in1012.2 mb 0.00 in0.0 mm 0.00 in0.0 mm 0.00 in0.0 mm
02:40 AM 65.1°F18.4°C 62.1°F16.7°C 90% 1.3 mph W2.1 kmh W 3.6 mph5.8 kmh 29.89 in1012.2 mb 0.00 in0.0 mm 0.00 in0.0 mm 0.00 in0.0 mm
02:45 AM 64.9°F18.3°C 61.6°F16.4°C 89% 1.3 mph W2.1 kmh W 4.0 mph6.4 kmh 29.89 in1012.2 mb 0.00 in0.0 mm 0.00 in0.0 mm 0.00 in0.0 mm
02:50 AM 64.9°F18.3°C 61.9°F16.6°C 90% 1.8 mph W2.9 kmh W 4.0 mph6.4 kmh 29.89 in1012.2 mb 0.00 in0.0 mm 0.00 in0.0 mm 0.00 in0.0 mm
02:55 AM 65.1°F18.4°C 62.1°F16.7°C 90% 1.8 mph WNW2.9 kmh WNW 4.0 mph6.4 kmh 29.89 in1012.2 mb 0.00 in0.0 mm 0.00 in0.0 mm 0.00 in0.0 mm
03:00 AM 65.1°F18.4°C 62.1°F16.7°C 90% 1.8 mph NW2.9 kmh NW 4.0 mph6.4 kmh 29.89 in1012.2 mb 0.00 in0.0 mm 0.00 in0.0 mm 0.00 in0.0 mm
03:05 AM 65.1°F18.4°C 62.1°F16.7°C 90% 1.3 mph NW2.1 kmh NW 4.5 mph7.2 kmh 29.89 in1012.2 mb 0.00 in0.0 mm 0.00 in0.0 mm 0.00 in0.0 mm
03:10 AM 65.1°F18.4°C 62.1°F16.7°C 90% 0.9 mph NW1.4 kmh NW 4.5 mph7.2 kmh 29.89 in1012.2 mb 0.00 in0.0 mm 0.00 in0.0 mm 0.00 in0.0 mm
03:15 AM 65.1°F18.4°C 62.1°F16.7°C 90% 0.9 mph WNW1.4 kmh WNW 2.7 mph4.3 kmh 29.89 in1012.2 mb 0.00 in0.0 mm 0.00 in0.0 mm 0.00 in0.0 mm
03:20 AM 65.1°F18.4°C 62.1°F16.7°C 90% 1.3 mph WNW2.1 kmh WNW 4.0 mph6.4 kmh 29.89 in1012.2 mb 0.00 in0.0 mm 0.00 in0.0 mm 0.00 in0.0 mm
03:25 AM 65.1°F18.4°C 62.1°F16.7°C 90% 1.8 mph WNW2.9 kmh WNW 4.0 mph6.4 kmh 29.90 in1012.5 mb 0.00 in0.0 mm 0.00 in0.0 mm 0.00 in0.0 mm
03:30 AM 65.1°F18.4°C 62.4°F16.9°C 91% 1.8 mph WNW2.9 kmh WNW 3.1 mph5.0 kmh 29.90 in1012.5 mb 0.00 in0.0 mm 0.00 in0.0 mm 0.00 in0.0 mm
03:35 AM 65.1°F18.4°C 62.4°F16.9°C 91% 1.8 mph WNW2.9 kmh WNW 3.6 mph5.8 kmh 29.90 in1012.5 mb 0.00 in0.0 mm 0.00 in0.0 mm 0.00 in0.0 mm
03:40 AM 65.1°F18.4°C 62.4°F16.9°C 91% 1.8 mph NW2.9 kmh NW 3.6 mph5.8 kmh 29.89 in1012.2 mb 0.00 in0.0 mm 0.00 in0.0 mm 0.00 in0.0 mm
03:45 AM 65.1°F18.4°C 62.4°F16.9°C 91% 1.3 mph NW2.1 kmh NW 3.1 mph5.0 kmh 29.89 in1012.2 mb 0.00 in0.0 mm 0.00 in0.0 mm 0.00 in0.0 mm
03:50 AM 65.3°F18.5°C 62.6°F17.0°C 91% 1.3 mph NNW2.1 kmh NNW 3.1 mph5.0 kmh 29.89 in1012.2 mb 0.00 in0.0 mm 0.00 in0.0 mm 0.00 in0.0 mm
03:55 AM 65.3°F18.5°C 62.6°F17.0°C 91% 1.3 mph N2.1 kmh N 3.6 mph5.8 kmh 29.89 in1012.2 mb 0.00 in0.0 mm 0.00 in0.0 mm 0.00 in0.0 mm
04:00 AM 65.4°F18.6°C 63.1°F17.3°C 92% 1.3 mph NNW2.1 kmh NNW 3.6 mph5.8 kmh 29.89 in1012.2 mb 0.00 in0.0 mm 0.00 in0.0 mm 0.00 in0.0 mm
04:05 AM 65.3°F18.5°C 63.0°F17.2°C 92% 1.8 mph NW2.9 kmh NW 3.6 mph5.8 kmh 29.89 in1012.2 mb 0.00 in0.0 mm 0.00 in0.0 mm 0.00 in0.0 mm
04:10 AM 65.3°F18.5°C 63.0°F17.2°C 92% 1.8 mph NW2.9 kmh NW 3.1 mph5.0 kmh 29.89 in1012.2 mb 0.00 in0.0 mm 0.00 in0.0 mm 0.00 in0.0 mm
04:15 AM 65.3°F18.5°C 63.0°F17.2°C 92% 1.8 mph NW2.9 kmh NW 3.1 mph5.0 kmh 29.89 in1012.2 mb 0.00 in0.0 mm 0.00 in0.0 mm 0.00 in0.0 mm
04:20 AM 65.3°F18.5°C 63.3°F17.4°C 93% 1.8 mph NW2.9 kmh NW 3.6 mph5.8 kmh 29.89 in1012.2 mb 0.00 in0.0 mm 0.00 in0.0 mm 0.00 in0.0 mm
04:25 AM 65.3°F18.5°C 63.3°F17.4°C 93% 1.8 mph NW2.9 kmh NW 4.0 mph6.4 kmh 29.90 in1012.5 mb 0.00 in0.0 mm 0.00 in0.0 mm 0.00 in0.0 mm
04:30 AM 65.3°F18.5°C 63.3°F17.4°C 93% 1.3 mph NW2.1 kmh NW 4.0 mph6.4 kmh 29.90 in1012.5 mb 0.00 in0.0 mm 0.00 in0.0 mm 0.00 in0.0 mm
04:35 AM 65.3°F18.5°C 63.3°F17.4°C 93% 1.3 mph NW2.1 kmh NW 3.6 mph5.8 kmh 29.90 in1012.5 mb 0.00 in0.0 mm 0.00 in0.0 mm 0.00 in0.0 mm
04:40 AM 65.1°F18.4°C 63.1°F17.3°C 93% 1.3 mph NW2.1 kmh NW 3.6 mph5.8 kmh 29.90 in1012.5 mb 0.00 in0.0 mm 0.00 in0.0 mm 0.00 in0.0 mm
04:45 AM 64.9°F18.3°C 62.9°F17.2°C 93% 1.3 mph W2.1 kmh W 3.6 mph5.8 kmh 29.90 in1012.5 mb 0.00 in0.0 mm 0.00 in0.0 mm 0.00 in0.0 mm
04:50 AM 64.9°F18.3°C 63.2°F17.3°C 94% 1.3 mph WSW2.1 kmh WSW 2.7 mph4.3 kmh 29.90 in1012.5 mb 0.00 in0.0 mm 0.00 in0.0 mm 0.00 in0.0 mm
04:55 AM 64.9°F18.3°C 63.2°F17.3°C 94% 1.3 mph WSW2.1 kmh WSW 2.7 mph4.3 kmh 29.90 in1012.5 mb 0.00 in0.0 mm 0.00 in0.0 mm 0.00 in0.0 mm
05:00 AM 64.7°F18.2°C 63.0°F17.2°C 94% 0.4 mph WSW0.6 kmh WSW 1.8 mph2.9 kmh 29.89 in1012.2 mb 0.00 in0.0 mm 0.00 in0.0 mm 0.00 in0.0 mm
05:05 AM 64.7°F18.2°C 63.0°F17.2°C 94% Calm Calm -- 29.90 in1012.5 mb 0.00 in0.0 mm 0.00 in0.0 mm 0.00 in0.0 mm
05:10 AM 64.7°F18.2°C 63.0°F17.2°C 94% 0.9 mph WSW1.4 kmh WSW 4.0 mph6.4 kmh 29.89 in1012.2 mb 0.00 in0.0 mm 0.00 in0.0 mm 0.00 in0.0 mm
05:15 AM 64.7°F18.2°C 63.3°F17.4°C 95% 1.3 mph WSW2.1 kmh WSW 4.0 mph6.4 kmh 29.89 in1012.2 mb 0.00 in0.0 mm 0.00 in0.0 mm 0.00 in0.0 mm
05:20 AM 64.5°F18.1°C 63.1°F17.3°C 95% 0.9 mph WSW1.4 kmh WSW 4.0 mph6.4 kmh 29.89 in1012.2 mb 0.00 in0.0 mm 0.00 in0.0 mm 0.00 in0.0 mm
05:25 AM 64.5°F18.1°C 63.1°F17.3°C 95% 0.9 mph W1.4 kmh W 4.0 mph6.4 kmh 29.89 in1012.2 mb 0.00 in0.0 mm 0.00 in0.0 mm 0.00 in0.0 mm
05:30 AM 64.4°F18.0°C 62.7°F17.1°C 94% 0.4 mph WNW0.6 kmh WNW 2.2 mph3.5 kmh 29.89 in1012.2 mb 0.00 in0.0 mm 0.00 in0.0 mm 0.00 in0.0 mm
05:35 AM 64.4°F18.0°C 63.0°F17.2°C 95% Calm Calm -- 29.89 in1012.2 mb 0.00 in0.0 mm 0.00 in0.0 mm 0.00 in0.0 mm
05:40 AM 64.2°F17.9°C 62.8°F17.1°C 95% Calm Calm -- 29.89 in1012.2 mb 0.00 in0.0 mm 0.00 in0.0 mm 0.00 in0.0 mm
05:45 AM 64.0°F17.8°C 62.3°F16.8°C 94% Calm Calm -- 29.90 in1012.5 mb 0.00 in0.0 mm 0.00 in0.0 mm 0.00 in0.0 mm
05:50 AM 64.0°F17.8°C 62.6°F17.0°C 95% Calm Calm -- 29.89 in1012.2 mb 0.00 in0.0 mm 0.00 in0.0 mm 0.00 in0.0 mm
05:55 AM 64.0°F17.8°C 62.6°F17.0°C 95% Calm Calm -- 29.89 in1012.2 mb 0.00 in0.0 mm 0.00 in0.0 mm 0.00 in0.0 mm
06:00 AM 64.2°F17.9°C 62.8°F17.1°C 95% Calm Calm -- 29.89 in1012.2 mb 0.00 in0.0 mm 0.00 in0.0 mm 0.00 in0.0 mm
06:05 AM 64.4°F18.0°C 63.0°F17.2°C 95% Calm Calm -- 29.90 in1012.5 mb 0.00 in0.0 mm 0.00 in0.0 mm 0.00 in0.0 mm
06:10 AM 64.4°F18.0°C 63.0°F17.2°C 95% Calm Calm -- 29.90 in1012.5 mb 0.00 in0.0 mm 0.00 in0.0 mm 0.00 in0.0 mm
06:15 AM 64.4°F18.0°C 63.0°F17.2°C 95% Calm Calm -- 29.90 in1012.5 mb 0.00 in0.0 mm 0.00 in0.0 mm 0.00 in0.0 mm
06:20 AM 64.4°F18.0°C 63.0°F17.2°C 95% Calm Calm -- 29.89 in1012.2 mb 0.00 in0.0 mm 0.00 in0.0 mm 0.00 in0.0 mm
06:25 AM 64.9°F18.3°C 63.5°F17.5°C 95% Calm Calm -- 29.89 in1012.2 mb 0.00 in0.0 mm 0.00 in0.0 mm 0.00 in0.0 mm
06:30 AM 65.3°F18.5°C 63.6°F17.6°C 94% Calm Calm -- 29.89 in1012.2 mb 0.00 in0.0 mm 0.00 in0.0 mm 0.00 in0.0 mm
06:35 AM 65.4°F18.6°C 63.7°F17.6°C 94% Calm Calm -- 29.89 in1012.2 mb 0.00 in0.0 mm 0.00 in0.0 mm 0.00 in0.0 mm
06:40 AM 65.4°F18.6°C 63.7°F17.6°C 94% Calm Calm -- 29.90 in1012.5 mb 0.00 in0.0 mm 0.00 in0.0 mm 0.00 in0.0 mm
06:45 AM 65.6°F18.7°C 63.6°F17.6°C 93% Calm Calm -- 29.90 in1012.5 mb 0.00 in0.0 mm 0.00 in0.0 mm 0.00 in0.0 mm
06:50 AM 65.8°F18.8°C 63.8°F17.7°C 93% Calm Calm -- 29.90 in1012.5 mb 0.00 in0.0 mm 0.00 in0.0 mm 0.00 in0.0 mm
06:55 AM 66.0°F18.9°C 64.0°F17.8°C 93% Calm Calm -- 29.89 in1012.2 mb 0.00 in0.0 mm 0.00 in0.0 mm 0.00 in0.0 mm
07:00 AM 66.2°F19.0°C 63.8°F17.7°C 92% 0.4 mph N0.6 kmh N 2.7 mph4.3 kmh 29.89 in1012.2 mb 0.00 in0.0 mm 0.00 in0.0 mm 0.00 in0.0 mm
07:05 AM 66.3°F19.1°C 63.9°F17.7°C 92% 1.3 mph NNE2.1 kmh NNE 3.1 mph5.0 kmh 29.89 in1012.2 mb 0.00 in0.0 mm 0.00 in0.0 mm 0.00 in0.0 mm
07:10 AM 66.3°F19.1°C 63.9°F17.7°C 92% 1.3 mph NE2.1 kmh NE 3.1 mph5.0 kmh 29.89 in1012.2 mb 0.00 in0.0 mm 0.00 in0.0 mm 0.00 in0.0 mm
07:15 AM 66.5°F19.2°C 64.1°F17.8°C 92% 1.3 mph NNE2.1 kmh NNE 2.7 mph4.3 kmh 29.89 in1012.2 mb 0.00 in0.0 mm 0.00 in0.0 mm 0.00 in0.0 mm
07:20 AM 66.7°F19.3°C 64.3°F17.9°C 92% 1.3 mph N2.1 kmh N 2.7 mph4.3 kmh 29.89 in1012.2 mb 0.00 in0.0 mm 0.00 in0.0 mm 0.00 in0.0 mm
07:25 AM 66.9°F19.4°C 64.2°F17.9°C 91% 1.3 mph NNE2.1 kmh NNE 2.2 mph3.5 kmh 29.89 in1012.2 mb 0.00 in0.0 mm 0.00 in0.0 mm 0.00 in0.0 mm
07:30 AM 67.1°F19.5°C 64.4°F18.0°C 91% 0.9 mph NNE1.4 kmh NNE 2.2 mph3.5 kmh 29.89 in1012.2 mb 0.00 in0.0 mm 0.00 in0.0 mm 0.00 in0.0 mm
07:35 AM 67.2°F19.6°C 64.2°F17.9°C 90% 0.4 mph N0.6 kmh N 2.7 mph4.3 kmh 29.89 in1012.2 mb 0.00 in0.0 mm 0.00 in0.0 mm 0.00 in0.0 mm
07:40 AM 67.6°F19.8°C 64.3°F17.9°C 89% 0.9 mph N1.4 kmh N 4.0 mph6.4 kmh 29.89 in1012.2 mb 0.00 in0.0 mm 0.00 in0.0 mm 0.00 in0.0 mm
07:45 AM 67.8°F19.9°C 64.5°F18.1°C 89% 2.2 mph N3.5 kmh N 4.0 mph6.4 kmh 29.89 in1012.2 mb 0.00 in0.0 mm 0.00 in0.0 mm 0.00 in0.0 mm
07:50 AM 68.1°F20.1°C 64.4°F18.0°C 88% 2.7 mph N4.3 kmh N 5.4 mph8.7 kmh 29.89 in1012.2 mb 0.00 in0.0 mm 0.00 in0.0 mm 0.00 in0.0 mm
07:55 AM 68.3°F20.2°C 64.3°F17.9°C 87% 2.7 mph N4.3 kmh N 5.4 mph8.7 kmh 29.89 in1012.2 mb 0.00 in0.0 mm 0.00 in0.0 mm 0.00 in0.0 mm
08:00 AM 68.7°F20.4°C 64.7°F18.2°C 87% 2.7 mph N4.3 kmh N 6.3 mph10.1 kmh 29.89 in1012.2 mb 0.00 in0.0 mm 0.00 in0.0 mm 0.00 in0.0 mm
08:05 AM 68.9°F20.5°C 64.6°F18.1°C 86% 2.2 mph N3.5 kmh N 6.3 mph10.1 kmh 29.89 in1012.2 mb 0.00 in0.0 mm 0.00 in0.0 mm 0.00 in0.0 mm
08:10 AM 68.9°F20.5°C 64.2°F17.9°C 85% 2.2 mph NW3.5 kmh NW 5.8 mph9.3 kmh 29.89 in1012.2 mb 0.00 in0.0 mm 0.00 in0.0 mm 0.00 in0.0 mm
08:15 AM 69.0°F20.6°C 64.3°F17.9°C 85% 3.1 mph NW5.0 kmh NW 5.8 mph9.3 kmh 29.89 in1012.2 mb 0.00 in0.0 mm 0.00 in0.0 mm 0.00 in0.0 mm
08:20 AM 68.9°F20.5°C 63.9°F17.7°C 84% 3.1 mph WNW5.0 kmh WNW 5.4 mph8.7 kmh 29.89 in1012.2 mb 0.00 in0.0 mm 0.00 in0.0 mm 0.00 in0.0 mm
08:25 AM 69.4°F20.8°C 64.4°F18.0°C 84% 2.7 mph WNW4.3 kmh WNW 5.4 mph8.7 kmh 29.89 in1012.2 mb 0.00 in0.0 mm 0.00 in0.0 mm 0.00 in0.0 mm
08:30 AM 69.6°F20.9°C 64.2°F17.9°C 83% 2.7 mph NW4.3 kmh NW 7.6 mph12.2 kmh 29.89 in1012.2 mb 0.00 in0.0 mm 0.00 in0.0 mm 0.00 in0.0 mm
08:35 AM 69.8°F21.0°C 64.4°F18.0°C 83% 3.1 mph WNW5.0 kmh WNW 7.6 mph12.2 kmh 29.89 in1012.2 mb 0.00 in0.0 mm 0.00 in0.0 mm 0.00 in0.0 mm
08:40 AM 69.8°F21.0°C 64.4°F18.0°C 83% 3.1 mph WNW5.0 kmh WNW 6.3 mph10.1 kmh 29.89 in1012.2 mb 0.00 in0.0 mm 0.00 in0.0 mm 0.00 in0.0 mm
08:45 AM 69.8°F21.0°C 64.4°F18.0°C 83% 3.1 mph WNW5.0 kmh WNW 6.3 mph10.1 kmh 29.89 in1012.2 mb 0.00 in0.0 mm 0.00 in0.0 mm 0.00 in0.0 mm
08:50 AM 69.8°F21.0°C 64.4°F18.0°C 83% 3.6 mph WNW5.8 kmh WNW 8.1 mph13.0 kmh 29.89 in1012.2 mb 0.00 in0.0 mm 0.00 in0.0 mm 0.00 in0.0 mm
08:55 AM 69.8°F21.0°C 64.4°F18.0°C 83% 3.6 mph WNW5.8 kmh WNW 8.1 mph13.0 kmh 29.89 in1012.2 mb 0.00 in0.0 mm 0.00 in0.0 mm 0.00 in0.0 mm
09:00 AM 69.8°F21.0°C 64.1°F17.8°C 82% 3.1 mph WNW5.0 kmh WNW 7.6 mph12.2 kmh 29.89 in1012.2 mb 0.00 in0.0 mm 0.00 in0.0 mm 0.00 in0.0 mm
09:05 AM 69.6°F20.9°C 63.5°F17.5°C 81% 4.0 mph W6.4 kmh W 8.1 mph13.0 kmh 29.89 in1012.2 mb 0.00 in0.0 mm 0.00 in0.0 mm 0.00 in0.0 mm
09:10 AM 69.2°F20.7°C 63.5°F17.5°C 82% 4.5 mph WSW7.2 kmh WSW 8.1 mph13.0 kmh 29.89 in1012.2 mb 0.00 in0.0 mm 0.00 in0.0 mm 0.00 in0.0 mm
09:15 AM 69.8°F21.0°C 63.7°F17.6°C 81% 3.6 mph W5.8 kmh W 7.2 mph11.6 kmh 29.89 in1012.2 mb 0.00 in0.0 mm 0.00 in0.0 mm 0.00 in0.0 mm
09:20 AM 69.9°F21.1°C 63.8°F17.7°C 81% 3.6 mph WNW5.8 kmh WNW 6.7 mph10.8 kmh 29.89 in1012.2 mb 0.00 in0.0 mm 0.00 in0.0 mm 0.00 in0.0 mm
09:25 AM 70.1°F21.2°C 64.0°F17.8°C 81% 4.0 mph WNW6.4 kmh WNW 7.2 mph11.6 kmh 29.89 in1012.2 mb 0.00 in0.0 mm 0.00 in0.0 mm 0.00 in0.0 mm
09:30 AM 70.1°F21.2°C 64.0°F17.8°C 81% 3.6 mph WNW5.8 kmh WNW 7.2 mph11.6 kmh 29.88 in1011.9 mb 0.00 in0.0 mm 0.00 in0.0 mm 0.00 in0.0 mm
09:35 AM 70.5°F21.4°C 64.1°F17.8°C 80% 3.1 mph W5.0 kmh W 7.6 mph12.2 kmh 29.88 in1011.9 mb 0.00 in0.0 mm 0.00 in0.0 mm 0.00 in0.0 mm
09:40 AM 70.3°F21.3°C 63.9°F17.7°C 80% 4.0 mph WNW6.4 kmh WNW 8.5 mph13.7 kmh 29.88 in1011.9 mb 0.00 in0.0 mm 0.00 in0.0 mm 0.00 in0.0 mm
09:45 AM 70.3°F21.3°C 63.9°F17.7°C 80% 4.0 mph W6.4 kmh W 9.0 mph14.5 kmh 29.88 in1011.9 mb 0.00 in0.0 mm 0.00 in0.0 mm 0.00 in0.0 mm
09:50 AM 70.3°F21.3°C 63.5°F17.5°C 79% 4.0 mph W6.4 kmh W 9.0 mph14.5 kmh 29.88 in1011.9 mb 0.00 in0.0 mm 0.00 in0.0 mm 0.00 in0.0 mm
09:55 AM 71.2°F21.8°C 64.4°F18.0°C 79% 4.0 mph WNW6.4 kmh WNW 8.1 mph13.0 kmh 29.88 in1011.9 mb 0.00 in0.0 mm 0.00 in0.0 mm 0.00 in0.0 mm
10:00 AM 71.6°F22.0°C 64.0°F17.8°C 77% 3.6 mph WNW5.8 kmh WNW 7.6 mph12.2 kmh 29.88 in1011.9 mb 0.00 in0.0 mm 0.00 in0.0 mm 0.00 in0.0 mm
10:05 AM 71.9°F22.2°C 64.0°F17.8°C 76% 3.6 mph WNW5.8 kmh WNW 7.6 mph12.2 kmh 29.89 in1012.2 mb 0.00 in0.0 mm 0.00 in0.0 mm 0.00 in0.0 mm
10:10 AM 72.3°F22.4°C 64.0°F17.8°C 75% 4.0 mph WNW6.4 kmh WNW 7.6 mph12.2 kmh 29.88 in1011.9 mb 0.00 in0.0 mm 0.00 in0.0 mm 0.00 in0.0 mm
10:15 AM 72.6°F22.6°C 63.9°F17.7°C 74% 4.0 mph WNW6.4 kmh WNW 7.6 mph12.2 kmh 29.88 in1011.9 mb 0.00 in0.0 mm 0.00 in0.0 mm 0.00 in0.0 mm
10:20 AM 72.3°F22.4°C 64.3°F17.9°C 76% 4.0 mph W6.4 kmh W 7.6 mph12.2 kmh 29.88 in1011.9 mb 0.00 in0.0 mm 0.00 in0.0 mm 0.00 in0.0 mm
10:25 AM 72.5°F22.5°C 64.5°F18.1°C 76% 3.1 mph W5.0 kmh W 7.2 mph11.6 kmh 29.88 in1011.9 mb 0.00 in0.0 mm 0.00 in0.0 mm 0.00 in0.0 mm
10:30 AM 73.5°F23.1°C 64.0°F17.8°C 72% 3.1 mph NW5.0 kmh NW 8.5 mph13.7 kmh 29.88 in1011.9 mb 0.00 in0.0 mm 0.00 in0.0 mm 0.00 in0.0 mm
10:35 AM 74.1°F23.4°C 64.5°F18.1°C 72% 4.0 mph NW6.4 kmh NW 8.5 mph13.7 kmh 29.88 in1011.9 mb 0.00 in0.0 mm 0.00 in0.0 mm 0.00 in0.0 mm
10:40 AM 74.1°F23.4°C 64.5°F18.1°C 72% 4.5 mph WNW7.2 kmh WNW 9.0 mph14.5 kmh 29.88 in1011.9 mb 0.00 in0.0 mm 0.00 in0.0 mm 0.00 in0.0 mm
10:45 AM 73.0°F22.8°C 63.9°F17.7°C 73% 4.5 mph W7.2 kmh W 11.6 mph18.7 kmh 29.88 in1011.9 mb 0.00 in0.0 mm 0.00 in0.0 mm 0.00 in0.0 mm
10:50 AM 73.7°F23.2°C 64.1°F17.8°C 72% 4.5 mph W7.2 kmh W 11.6 mph18.7 kmh 29.88 in1011.9 mb 0.00 in0.0 mm 0.00 in0.0 mm 0.00 in0.0 mm
10:55 AM 73.2°F22.9°C 63.3°F17.4°C 71% 4.5 mph WNW7.2 kmh WNW 10.8 mph17.4 kmh 29.88 in1011.9 mb 0.00 in0.0 mm 0.00 in0.0 mm 0.00 in0.0 mm
11:00 AM 72.6°F22.6°C 63.5°F17.5°C 73% 5.4 mph W8.7 kmh W 13.0 mph20.9 kmh 29.88 in1011.9 mb 0.00 in0.0 mm 0.00 in0.0 mm 0.00 in0.0 mm
11:05 AM 73.2°F22.9°C 64.1°F17.8°C 73% 4.9 mph WSW7.9 kmh WSW 13.0 mph20.9 kmh 29.88 in1011.9 mb 0.00 in0.0 mm 0.00 in0.0 mm 0.00 in0.0 mm
11:10 AM 72.6°F22.6°C 63.9°F17.7°C 74% 4.9 mph WSW7.9 kmh WSW 9.9 mph15.9 kmh 29.88 in1011.9 mb 0.00 in0.0 mm 0.00 in0.0 mm 0.00 in0.0 mm
11:15 AM 72.8°F22.7°C 64.1°F17.8°C 74% 4.9 mph WSW7.9 kmh WSW 12.1 mph19.5 kmh 29.88 in1011.9 mb 0.00 in0.0 mm 0.00 in0.0 mm 0.00 in0.0 mm
11:20 AM 72.5°F22.5°C 63.8°F17.7°C 74% 4.9 mph WSW7.9 kmh WSW 12.1 mph19.5 kmh 29.88 in1011.9 mb 0.00 in0.0 mm 0.00 in0.0 mm 0.00 in0.0 mm
11:25 AM 72.8°F22.7°C 64.1°F17.8°C 74% 5.4 mph WSW8.7 kmh WSW 11.6 mph18.7 kmh 29.87 in1011.5 mb 0.00 in0.0 mm 0.00 in0.0 mm 0.00 in0.0 mm
11:30 AM 73.2°F22.9°C 64.5°F18.1°C 74% 4.9 mph WSW7.9 kmh WSW 9.0 mph14.5 kmh 29.87 in1011.5 mb 0.00 in0.0 mm 0.00 in0.0 mm 0.00 in0.0 mm
11:35 AM 73.2°F22.9°C 64.1°F17.8°C 73% 4.5 mph WSW7.2 kmh WSW 9.9 mph15.9 kmh 29.87 in1011.5 mb 0.00 in0.0 mm 0.00 in0.0 mm 0.00 in0.0 mm
11:40 AM 73.4°F23.0°C 64.3°F17.9°C 73% 4.9 mph WSW7.9 kmh WSW 10.8 mph17.4 kmh 29.87 in1011.5 mb 0.00 in0.0 mm 0.00 in0.0 mm 0.00 in0.0 mm
11:45 AM 74.3°F23.5°C 64.3°F17.9°C 71% 4.5 mph WSW7.2 kmh WSW 10.8 mph17.4 kmh 29.87 in1011.5 mb 0.00 in0.0 mm 0.00 in0.0 mm 0.00 in0.0 mm
11:50 AM 75.2°F24.0°C 63.9°F17.7°C 68% 4.5 mph WSW7.2 kmh WSW 11.6 mph18.7 kmh 29.87 in1011.5 mb 0.00 in0.0 mm 0.00 in0.0 mm 0.00 in0.0 mm
11:55 AM 73.5°F23.1°C 64.0°F17.8°C 72% 5.8 mph WSW9.3 kmh WSW 14.3 mph23.0 kmh 29.88 in1011.9 mb 0.00 in0.0 mm 0.00 in0.0 mm 0.00 in0.0 mm
12:00 PM 73.4°F23.0°C 63.9°F17.7°C 72% 5.8 mph WSW9.3 kmh WSW 17.5 mph28.2 kmh 29.88 in1011.9 mb 0.00 in0.0 mm 0.00 in0.0 mm 0.00 in0.0 mm
12:05 PM 72.8°F22.7°C 63.7°F17.6°C 73% 6.3 mph WSW10.1 kmh WSW 17.5 mph28.2 kmh 29.87 in1011.5 mb 0.00 in0.0 mm 0.00 in0.0 mm 0.00 in0.0 mm
12:10 PM 72.8°F22.7°C 63.3°F17.4°C 72% 5.4 mph WSW8.7 kmh WSW 12.1 mph19.5 kmh 29.88 in1011.9 mb 0.00 in0.0 mm 0.00 in0.0 mm 0.00 in0.0 mm
12:15 PM 73.0°F22.8°C 63.9°F17.7°C 73% 5.8 mph WSW9.3 kmh WSW 11.6 mph18.7 kmh 29.87 in1011.5 mb 0.00 in0.0 mm 0.00 in0.0 mm 0.00 in0.0 mm
12:20 PM 73.2°F22.9°C 63.3°F17.4°C 71% 6.3 mph WSW10.1 kmh WSW 12.5 mph20.1 kmh 29.87 in1011.5 mb 0.00 in0.0 mm 0.00 in0.0 mm 0.00 in0.0 mm
12:25 PM 73.5°F23.1°C 63.6°F17.6°C 71% 6.3 mph WSW10.1 kmh WSW 12.5 mph20.1 kmh 29.87 in1011.5 mb 0.00 in0.0 mm 0.00 in0.0 mm 0.00 in0.0 mm
12:30 PM 73.9°F23.3°C 63.1°F17.3°C 69% 6.7 mph WSW10.8 kmh WSW 14.3 mph23.0 kmh 29.87 in1011.5 mb 0.00 in0.0 mm 0.00 in0.0 mm 0.00 in0.0 mm
12:35 PM 74.6°F23.7°C 63.4°F17.4°C 68% 7.2 mph W11.6 kmh W 14.3 mph23.0 kmh 29.87 in1011.5 mb 0.00 in0.0 mm 0.00 in0.0 mm 0.00 in0.0 mm
12:40 PM 75.0°F23.9°C 63.3°F17.4°C 67% 6.7 mph W10.8 kmh W 22.4 mph36.0 kmh 29.87 in1011.5 mb 0.00 in0.0 mm 0.00 in0.0 mm 0.00 in0.0 mm
12:45 PM 73.7°F23.2°C 62.9°F17.2°C 69% 6.7 mph W10.8 kmh W 22.4 mph36.0 kmh 29.86 in1011.2 mb 0.00 in0.0 mm 0.00 in0.0 mm 0.00 in0.0 mm
12:50 PM 73.5°F23.1°C 63.2°F17.3°C 70% 7.2 mph WSW11.6 kmh WSW 17.5 mph28.2 kmh 29.87 in1011.5 mb 0.00 in0.0 mm 0.00 in0.0 mm 0.00 in0.0 mm
12:55 PM 73.5°F23.1°C 63.2°F17.3°C 70% 6.7 mph WSW10.8 kmh WSW 17.5 mph28.2 kmh 29.87 in1011.5 mb 0.00 in0.0 mm 0.00 in0.0 mm 0.00 in0.0 mm
01:00 PM 73.2°F22.9°C 63.3°F17.4°C 71% 7.2 mph WSW11.6 kmh WSW 14.3 mph23.0 kmh 29.87 in1011.5 mb 0.00 in0.0 mm 0.00 in0.0 mm 0.00 in0.0 mm
01:05 PM 73.5°F23.1°C 62.3°F16.8°C 68% 7.2 mph WSW11.6 kmh WSW 15.2 mph24.5 kmh 29.86 in1011.2 mb 0.00 in0.0 mm 0.00 in0.0 mm 0.00 in0.0 mm
01:10 PM 74.4°F23.6°C 63.6°F17.6°C 69% 6.7 mph WSW10.8 kmh WSW 15.2 mph24.5 kmh 29.86 in1011.2 mb 0.00 in0.0 mm 0.00 in0.0 mm 0.00 in0.0 mm
01:15 PM 74.4°F23.6°C 63.2°F17.3°C 68% 6.3 mph WSW10.1 kmh WSW 14.3 mph23.0 kmh 29.86 in1011.2 mb 0.00 in0.0 mm 0.00 in0.0 mm 0.00 in0.0 mm
01:20 PM 74.8°F23.8°C 63.6°F17.6°C 68% 6.3 mph WSW10.1 kmh WSW 14.8 mph23.8 kmh 29.86 in1011.2 mb 0.00 in0.0 mm 0.00 in0.0 mm 0.00 in0.0 mm
01:25 PM 74.3°F23.5°C 63.9°F17.7°C 70% 6.7 mph W10.8 kmh W 15.7 mph25.3 kmh 29.86 in1011.2 mb 0.00 in0.0 mm 0.00 in0.0 mm 0.00 in0.0 mm
01:30 PM 74.8°F23.8°C 63.6°F17.6°C 68% 7.6 mph WSW12.2 kmh WSW 16.6 mph26.7 kmh 29.86 in1011.2 mb 0.00 in0.0 mm 0.00 in0.0 mm 0.00 in0.0 mm
01:35 PM 74.3°F23.5°C 62.7°F17.1°C 67% 7.6 mph WSW12.2 kmh WSW 18.4 mph29.6 kmh 29.86 in1011.2 mb 0.00 in0.0 mm 0.00 in0.0 mm 0.00 in0.0 mm
01:40 PM 74.1°F23.4°C 62.9°F17.2°C 68% 6.7 mph WSW10.8 kmh WSW 18.4 mph29.6 kmh 29.86 in1011.2 mb 0.00 in0.0 mm 0.00 in0.0 mm 0.00 in0.0 mm
01:45 PM 73.9°F23.3°C 61.9°F16.6°C 66% 7.2 mph WSW11.6 kmh WSW 17.9 mph28.8 kmh 29.86 in1011.2 mb 0.00 in0.0 mm 0.00 in0.0 mm 0.00 in0.0 mm
01:50 PM 73.9°F23.3°C 61.9°F16.6°C 66% 7.6 mph WSW12.2 kmh WSW 17.9 mph28.8 kmh 29.86 in1011.2 mb 0.00 in0.0 mm 0.00 in0.0 mm 0.00 in0.0 mm
01:55 PM 73.7°F23.2°C 62.5°F16.9°C 68% 6.7 mph WSW10.8 kmh WSW 16.1 mph25.9 kmh 29.86 in1011.2 mb 0.00 in0.0 mm 0.00 in0.0 mm 0.00 in0.0 mm
02:00 PM 73.0°F22.8°C 61.9°F16.6°C 68% 7.2 mph WSW11.6 kmh WSW 14.8 mph23.8 kmh 29.86 in1011.2 mb 0.00 in0.0 mm 0.00 in0.0 mm 0.00 in0.0 mm
02:05 PM 73.4°F23.0°C 62.6°F17.0°C 69% 6.7 mph WSW10.8 kmh WSW 15.7 mph25.3 kmh 29.86 in1011.2 mb 0.00 in0.0 mm 0.00 in0.0 mm 0.00 in0.0 mm
02:10 PM 73.5°F23.1°C 61.9°F16.6°C 67% 6.7 mph WSW10.8 kmh WSW 16.6 mph26.7 kmh 29.86 in1011.2 mb 0.00 in0.0 mm 0.00 in0.0 mm 0.00 in0.0 mm
02:15 PM 73.4°F23.0°C 62.2°F16.8°C 68% 7.6 mph WSW12.2 kmh WSW 16.6 mph26.7 kmh 29.86 in1011.2 mb 0.00 in0.0 mm 0.00 in0.0 mm 0.00 in0.0 mm
02:20 PM 73.9°F23.3°C 61.9°F16.6°C 66% 7.2 mph WSW11.6 kmh WSW 16.1 mph25.9 kmh 29.86 in1011.2 mb 0.00 in0.0 mm 0.00 in0.0 mm 0.00 in0.0 mm
02:25 PM 74.1°F23.4°C 61.6°F16.4°C 65% 6.7 mph WSW10.8 kmh WSW 16.1 mph25.9 kmh 29.86 in1011.2 mb 0.00 in0.0 mm 0.00 in0.0 mm 0.00 in0.0 mm
02:30 PM 74.4°F23.6°C 61.0°F16.1°C 63% 6.7 mph WSW10.8 kmh WSW 14.8 mph23.8 kmh 29.86 in1011.2 mb 0.00 in0.0 mm 0.00 in0.0 mm 0.00 in0.0 mm
02:35 PM 74.3°F23.5°C 60.9°F16.1°C 63% 7.6 mph WSW12.2 kmh WSW 14.3 mph23.0 kmh 29.85 in1010.8 mb 0.00 in0.0 mm 0.00 in0.0 mm 0.00 in0.0 mm
02:40 PM 74.8°F23.8°C 61.4°F16.3°C 63% 7.2 mph WSW11.6 kmh WSW 14.3 mph23.0 kmh 29.85 in1010.8 mb 0.00 in0.0 mm 0.00 in0.0 mm 0.00 in0.0 mm
02:45 PM 74.6°F23.7°C 60.8°F16.0°C 62% 6.7 mph W10.8 kmh W 30.0 mph48.3 kmh 29.85 in1010.8 mb 0.00 in0.0 mm 0.00 in0.0 mm 0.00 in0.0 mm
02:50 PM 74.3°F23.5°C 60.9°F16.1°C 63% 7.2 mph W11.6 kmh W 30.0 mph48.3 kmh 29.85 in1010.8 mb 0.00 in0.0 mm 0.00 in0.0 mm 0.00 in0.0 mm
02:55 PM 74.3°F23.5°C 60.0°F15.6°C 61% 7.2 mph W11.6 kmh W 30.0 mph48.3 kmh 29.85 in1010.8 mb 0.00 in0.0 mm 0.00 in0.0 mm 0.00 in0.0 mm
03:00 PM 73.9°F23.3°C 58.7°F14.8°C 59% 7.6 mph WSW12.2 kmh WSW 17.9 mph28.8 kmh 29.85 in1010.8 mb 0.00 in0.0 mm 0.00 in0.0 mm 0.00 in0.0 mm
03:05 PM 75.2°F24.0°C 58.5°F14.7°C 56% 7.2 mph WSW11.6 kmh WSW 17.9 mph28.8 kmh 29.86 in1011.2 mb 0.00 in0.0 mm 0.00 in0.0 mm 0.00 in0.0 mm
03:10 PM 74.1°F23.4°C 57.4°F14.1°C 56% 7.2 mph WSW11.6 kmh WSW 17.9 mph28.8 kmh 29.85 in1010.8 mb 0.00 in0.0 mm 0.00 in0.0 mm 0.00 in0.0 mm
03:15 PM 75.3°F24.1°C 57.5°F14.2°C 54% 7.2 mph W11.6 kmh W 16.1 mph25.9 kmh 29.85 in1010.8 mb 0.00 in0.0 mm 0.00 in0.0 mm 0.00 in0.0 mm
03:20 PM 75.2°F24.0°C 57.4°F14.1°C 54% 7.2 mph W11.6 kmh W 17.0 mph27.4 kmh 29.85 in1010.8 mb 0.00 in0.0 mm 0.00 in0.0 mm 0.00 in0.0 mm
03:25 PM 75.0°F23.9°C 56.7°F13.7°C 53% 8.5 mph W13.7 kmh W 17.0 mph27.4 kmh 29.85 in1010.8 mb 0.00 in0.0 mm 0.00 in0.0 mm 0.00 in0.0 mm
03:30 PM 74.6°F23.7°C 56.9°F13.8°C 54% 8.5 mph W13.7 kmh W 21.5 mph34.6 kmh 29.85 in1010.8 mb 0.00 in0.0 mm 0.00 in0.0 mm 0.00 in0.0 mm
03:35 PM 74.4°F23.6°C 58.2°F14.6°C 57% 8.5 mph WSW13.7 kmh WSW 21.5 mph34.6 kmh 29.85 in1010.8 mb 0.00 in0.0 mm 0.00 in0.0 mm 0.00 in0.0 mm
03:40 PM 75.2°F24.0°C 59.4°F15.2°C 58% 8.1 mph WSW13.0 kmh WSW 19.7 mph31.7 kmh 29.84 in1010.5 mb 0.00 in0.0 mm 0.00 in0.0 mm 0.00 in0.0 mm
03:45 PM 73.4°F23.0°C 57.3°F14.1°C 57% 7.6 mph WSW12.2 kmh WSW 19.7 mph31.7 kmh 29.85 in1010.8 mb 0.00 in0.0 mm 0.00 in0.0 mm 0.00 in0.0 mm
03:50 PM 74.4°F23.6°C 56.7°F13.7°C 54% 8.1 mph WSW13.0 kmh WSW 19.7 mph31.7 kmh 29.84 in1010.5 mb 0.00 in0.0 mm 0.00 in0.0 mm 0.00 in0.0 mm
03:55 PM 73.5°F23.1°C 57.4°F14.1°C 57% 8.1 mph WSW13.0 kmh WSW 24.2 mph38.9 kmh 29.84 in1010.5 mb 0.00 in0.0 mm 0.00 in0.0 mm 0.00 in0.0 mm
04:00 PM 73.5°F23.1°C 57.4°F14.1°C 57% 7.6 mph WSW12.2 kmh WSW 24.2 mph38.9 kmh 29.84 in1010.5 mb 0.00 in0.0 mm 0.00 in0.0 mm 0.00 in0.0 mm
04:05 PM 73.5°F23.1°C 57.4°F14.1°C 57% 7.6 mph WSW12.2 kmh WSW 16.6 mph26.7 kmh 29.84 in1010.5 mb 0.00 in0.0 mm 0.00 in0.0 mm 0.00 in0.0 mm
04:10 PM 73.9°F23.3°C 56.2°F13.4°C 54% 8.5 mph WSW13.7 kmh WSW 17.9 mph28.8 kmh 29.84 in1010.5 mb 0.00 in0.0 mm 0.00 in0.0 mm 0.00 in0.0 mm
04:15 PM 73.7°F23.2°C 55.5°F13.1°C 53% 8.1 mph WSW13.0 kmh WSW 17.9 mph28.8 kmh 29.84 in1010.5 mb 0.00 in0.0 mm 0.00 in0.0 mm 0.00 in0.0 mm
04:20 PM 73.4°F23.0°C 55.8°F13.2°C 54% 7.6 mph WSW12.2 kmh WSW 17.0 mph27.4 kmh 29.84 in1010.5 mb 0.00 in0.0 mm 0.00 in0.0 mm 0.00 in0.0 mm
04:25 PM 73.9°F23.3°C 56.2°F13.4°C 54% 7.2 mph WSW11.6 kmh WSW 17.0 mph27.4 kmh 29.84 in1010.5 mb 0.00 in0.0 mm 0.00 in0.0 mm 0.00 in0.0 mm
04:30 PM 74.4°F23.6°C 56.7°F13.7°C 54% 6.3 mph WSW10.1 kmh WSW 14.8 mph23.8 kmh 29.84 in1010.5 mb 0.00 in0.0 mm 0.00 in0.0 mm 0.00 in0.0 mm
04:35 PM 74.4°F23.6°C 56.7°F13.7°C 54% 6.3 mph W10.1 kmh W 16.1 mph25.9 kmh 29.84 in1010.5 mb 0.00 in0.0 mm 0.00 in0.0 mm 0.00 in0.0 mm
04:40 PM 73.7°F23.2°C 56.1°F13.4°C 54% 7.6 mph WSW12.2 kmh WSW 16.1 mph25.9 kmh 29.84 in1010.5 mb 0.00 in0.0 mm 0.00 in0.0 mm 0.00 in0.0 mm
04:45 PM 73.7°F23.2°C 56.1°F13.4°C 54% 8.1 mph WSW13.0 kmh WSW 16.1 mph25.9 kmh 29.84 in1010.5 mb 0.00 in0.0 mm 0.00 in0.0 mm 0.00 in0.0 mm
04:50 PM 74.8°F23.8°C 57.6°F14.2°C 55% 7.2 mph WSW11.6 kmh WSW 13.9 mph22.4 kmh 29.84 in1010.5 mb 0.00 in0.0 mm 0.00 in0.0 mm 0.00 in0.0 mm
04:55 PM 73.7°F23.2°C 57.1°F13.9°C 56% 6.7 mph WSW10.8 kmh WSW 17.5 mph28.2 kmh 29.84 in1010.5 mb 0.00 in0.0 mm 0.00 in0.0 mm 0.00 in0.0 mm
05:00 PM 73.7°F23.2°C 56.6°F13.7°C 55% 7.2 mph WSW11.6 kmh WSW 17.5 mph28.2 kmh 29.84 in1010.5 mb 0.00 in0.0 mm 0.00 in0.0 mm 0.00 in0.0 mm
05:05 PM 73.7°F23.2°C 56.6°F13.7°C 55% 7.6 mph WSW12.2 kmh WSW 15.7 mph25.3 kmh 29.84 in1010.5 mb 0.00 in0.0 mm 0.00 in0.0 mm 0.00 in0.0 mm
05:10 PM 73.2°F22.9°C 56.6°F13.7°C 56% 7.6 mph WSW12.2 kmh WSW 16.1 mph25.9 kmh 29.84 in1010.5 mb 0.00 in0.0 mm 0.00 in0.0 mm 0.00 in0.0 mm
05:15 PM 73.2°F22.9°C 56.6°F13.7°C 56% 7.6 mph WSW12.2 kmh WSW 24.6 mph39.6 kmh 29.84 in1010.5 mb 0.00 in0.0 mm 0.00 in0.0 mm 0.00 in0.0 mm
05:20 PM 73.0°F22.8°C 56.4°F13.6°C 56% 6.7 mph WSW10.8 kmh WSW 24.6 mph39.6 kmh 29.84 in1010.5 mb 0.00 in0.0 mm 0.00 in0.0 mm 0.00 in0.0 mm
05:25 PM 73.2°F22.9°C 57.6°F14.2°C 58% 6.3 mph WSW10.1 kmh WSW 13.4 mph21.6 kmh 29.84 in1010.5 mb 0.00 in0.0 mm 0.00 in0.0 mm 0.00 in0.0 mm
05:30 PM 73.0°F22.8°C 57.4°F14.1°C 58% 6.3 mph WSW10.1 kmh WSW 17.5 mph28.2 kmh 29.85 in1010.8 mb 0.00 in0.0 mm 0.00 in0.0 mm 0.00 in0.0 mm
05:35 PM 72.1°F22.3°C 57.5°F14.2°C 60% 6.3 mph W10.1 kmh W 17.5 mph28.2 kmh 29.84 in1010.5 mb 0.00 in0.0 mm 0.00 in0.0 mm 0.00 in0.0 mm
05:40 PM 72.1°F22.3°C 56.5°F13.6°C 58% 6.7 mph W10.8 kmh W 14.3 mph23.0 kmh 29.84 in1010.5 mb 0.00 in0.0 mm 0.00 in0.0 mm 0.00 in0.0 mm
05:45 PM 71.4°F21.9°C 57.3°F14.1°C 61% 7.2 mph W11.6 kmh W 14.3 mph23.0 kmh 29.84 in1010.5 mb 0.00 in0.0 mm 0.00 in0.0 mm 0.00 in0.0 mm
05:50 PM 71.4°F21.9°C 57.3°F14.1°C 61% 6.7 mph WSW10.8 kmh WSW 13.4 mph21.6 kmh 29.84 in1010.5 mb 0.00 in0.0 mm 0.00 in0.0 mm 0.00 in0.0 mm
05:55 PM 72.1°F22.3°C 57.5°F14.2°C 60% 6.3 mph WSW10.1 kmh WSW 13.0 mph20.9 kmh 29.85 in1010.8 mb 0.00 in0.0 mm 0.00 in0.0 mm 0.00 in0.0 mm
06:00 PM 71.6°F22.0°C 57.0°F13.9°C 60% 5.4 mph WSW8.7 kmh WSW 12.5 mph20.1 kmh 29.85 in1010.8 mb 0.00 in0.0 mm 0.00 in0.0 mm 0.00 in0.0 mm
06:05 PM 71.4°F21.9°C 57.3°F14.1°C 61% 4.9 mph WSW7.9 kmh WSW 10.8 mph17.4 kmh 29.85 in1010.8 mb 0.00 in0.0 mm 0.00 in0.0 mm 0.00 in0.0 mm
06:10 PM 70.8°F21.6°C 58.1°F14.5°C 64% 5.8 mph W9.3 kmh W 10.8 mph17.4 kmh 29.85 in1010.8 mb 0.00 in0.0 mm 0.00 in0.0 mm 0.00 in0.0 mm
06:15 PM 69.9°F21.1°C 57.6°F14.2°C 65% 5.8 mph W9.3 kmh W 10.8 mph17.4 kmh 29.86 in1011.2 mb 0.00 in0.0 mm 0.00 in0.0 mm 0.00 in0.0 mm
06:20 PM 69.9°F21.1°C 57.2°F14.0°C 64% 5.4 mph W8.7 kmh W 10.8 mph17.4 kmh 29.86 in1011.2 mb 0.00 in0.0 mm 0.00 in0.0 mm 0.00 in0.0 mm
06:25 PM 69.9°F21.1°C 57.2°F14.0°C 64% 5.4 mph W8.7 kmh W 12.5 mph20.1 kmh 29.86 in1011.2 mb 0.00 in0.0 mm 0.00 in0.0 mm 0.00 in0.0 mm
06:30 PM 69.6°F20.9°C 57.3°F14.1°C 65% 4.9 mph W7.9 kmh W 12.5 mph20.1 kmh 29.86 in1011.2 mb 0.00 in0.0 mm 0.00 in0.0 mm 0.00 in0.0 mm
06:35 PM 69.6°F20.9°C 57.3°F14.1°C 65% 4.9 mph WSW7.9 kmh WSW 13.0 mph20.9 kmh 29.86 in1011.2 mb 0.00 in0.0 mm 0.00 in0.0 mm 0.00 in0.0 mm
06:40 PM 69.6°F20.9°C 57.3°F14.1°C 65% 4.9 mph W7.9 kmh W 13.0 mph20.9 kmh 29.87 in1011.5 mb 0.00 in0.0 mm 0.00 in0.0 mm 0.00 in0.0 mm
06:45 PM 69.0°F20.6°C 58.8°F14.9°C 70% 4.9 mph WSW7.9 kmh WSW 10.3 mph16.6 kmh 29.87 in1011.5 mb 0.00 in0.0 mm 0.00 in0.0 mm 0.00 in0.0 mm
06:50 PM 68.9°F20.5°C 59.1°F15.1°C 71% 4.9 mph WSW7.9 kmh WSW 10.8 mph17.4 kmh 29.87 in1011.5 mb 0.00 in0.0 mm 0.00 in0.0 mm 0.00 in0.0 mm
06:55 PM 68.9°F20.5°C 58.7°F14.8°C 70% 4.9 mph W7.9 kmh W 10.8 mph17.4 kmh 29.87 in1011.5 mb 0.00 in0.0 mm 0.00 in0.0 mm 0.00 in0.0 mm
07:00 PM 69.0°F20.6°C 59.2°F15.1°C 71% 4.9 mph W7.9 kmh W 9.9 mph15.9 kmh 29.87 in1011.5 mb 0.00 in0.0 mm 0.00 in0.0 mm 0.00 in0.0 mm
07:05 PM 68.9°F20.5°C 58.7°F14.8°C 70% 4.9 mph WNW7.9 kmh WNW 9.4 mph15.1 kmh 29.87 in1011.5 mb 0.00 in0.0 mm 0.00 in0.0 mm 0.00 in0.0 mm
07:10 PM 68.7°F20.4°C 59.3°F15.2°C 72% 4.0 mph W6.4 kmh W 9.9 mph15.9 kmh 29.87 in1011.5 mb 0.00 in0.0 mm 0.00 in0.0 mm 0.00 in0.0 mm
07:15 PM 68.5°F20.3°C 59.5°F15.3°C 73% 4.0 mph W6.4 kmh W 9.9 mph15.9 kmh 29.87 in1011.5 mb 0.00 in0.0 mm 0.00 in0.0 mm 0.00 in0.0 mm
07:20 PM 68.1°F20.1°C 59.5°F15.3°C 74% 4.5 mph W7.2 kmh W 9.0 mph14.5 kmh 29.88 in1011.9 mb 0.00 in0.0 mm 0.00 in0.0 mm 0.00 in0.0 mm
07:25 PM 68.0°F20.0°C 59.8°F15.4°C 75% 4.5 mph W7.2 kmh W 9.9 mph15.9 kmh 29.88 in1011.9 mb 0.00 in0.0 mm 0.00 in0.0 mm 0.00 in0.0 mm
07:30 PM 68.0°F20.0°C 59.8°F15.4°C 75% 4.0 mph W6.4 kmh W 12.1 mph19.5 kmh 29.88 in1011.9 mb 0.00 in0.0 mm 0.00 in0.0 mm 0.00 in0.0 mm
07:35 PM 68.0°F20.0°C 59.8°F15.4°C 75% 3.6 mph W5.8 kmh W 12.1 mph19.5 kmh 29.88 in1011.9 mb 0.00 in0.0 mm 0.00 in0.0 mm 0.00 in0.0 mm
07:40 PM 68.0°F20.0°C 60.2°F15.7°C 76% 4.0 mph W6.4 kmh W 8.1 mph13.0 kmh 29.88 in1011.9 mb 0.00 in0.0 mm 0.00 in0.0 mm 0.00 in0.0 mm
07:45 PM 67.8°F19.9°C 60.0°F15.6°C 76% 4.0 mph W6.4 kmh W 8.5 mph13.7 kmh 29.88 in1011.9 mb 0.00 in0.0 mm 0.00 in0.0 mm 0.00 in0.0 mm
07:50 PM 67.6°F19.8°C 59.8°F15.4°C 76% 3.6 mph W5.8 kmh W 8.5 mph13.7 kmh 29.88 in1011.9 mb 0.00 in0.0 mm 0.00 in0.0 mm 0.00 in0.0 mm
07:55 PM 67.4°F19.7°C 60.0°F15.6°C 77% 3.6 mph WSW5.8 kmh WSW 7.2 mph11.6 kmh 29.88 in1011.9 mb 0.00 in0.0 mm 0.00 in0.0 mm 0.00 in0.0 mm
08:00 PM 67.2°F19.6°C 59.8°F15.4°C 77% 3.6 mph WSW5.8 kmh WSW 8.1 mph13.0 kmh 29.88 in1011.9 mb 0.00 in0.0 mm 0.00 in0.0 mm 0.00 in0.0 mm
08:05 PM 67.4°F19.7°C 60.0°F15.6°C 77% 3.1 mph WSW5.0 kmh WSW 8.5 mph13.7 kmh 29.88 in1011.9 mb 0.00 in0.0 mm 0.00 in0.0 mm 0.00 in0.0 mm
08:10 PM 67.2°F19.6°C 60.1°F15.6°C 78% 3.1 mph WSW5.0 kmh WSW 8.5 mph13.7 kmh 29.89 in1012.2 mb 0.00 in0.0 mm 0.00 in0.0 mm 0.00 in0.0 mm
08:15 PM 67.1°F19.5°C 60.0°F15.6°C 78% 3.1 mph WSW5.0 kmh WSW 7.6 mph12.2 kmh 29.88 in1011.9 mb 0.00 in0.0 mm 0.00 in0.0 mm 0.00 in0.0 mm
08:20 PM 67.2°F19.6°C 60.1°F15.6°C 78% 2.7 mph WSW4.3 kmh WSW 6.3 mph10.1 kmh 29.89 in1012.2 mb 0.00 in0.0 mm 0.00 in0.0 mm 0.00 in0.0 mm
08:25 PM 67.1°F19.5°C 60.0°F15.6°C 78% 2.7 mph WNW4.3 kmh WNW 6.7 mph10.8 kmh 29.89 in1012.2 mb 0.00 in0.0 mm 0.00 in0.0 mm 0.00 in0.0 mm
08:30 PM 67.1°F19.5°C 60.4°F15.8°C 79% 3.6 mph WNW5.8 kmh WNW 6.7 mph10.8 kmh 29.89 in1012.2 mb 0.00 in0.0 mm 0.00 in0.0 mm 0.00 in0.0 mm
08:35 PM 67.1°F19.5°C 60.4°F15.8°C 79% 3.1 mph WNW5.0 kmh WNW 5.8 mph9.3 kmh 29.89 in1012.2 mb 0.00 in0.0 mm 0.00 in0.0 mm 0.00 in0.0 mm
08:40 PM 66.9°F19.4°C 60.2°F15.7°C 79% 3.1 mph WNW5.0 kmh WNW 7.2 mph11.6 kmh 29.89 in1012.2 mb 0.00 in0.0 mm 0.00 in0.0 mm 0.00 in0.0 mm
08:45 PM 66.7°F19.3°C 60.0°F15.6°C 79% 2.7 mph WNW4.3 kmh WNW 7.2 mph11.6 kmh 29.89 in1012.2 mb 0.00 in0.0 mm 0.00 in0.0 mm 0.00 in0.0 mm
08:50 PM 66.7°F19.3°C 60.0°F15.6°C 79% 2.2 mph WNW3.5 kmh WNW 4.9 mph7.9 kmh 29.89 in1012.2 mb 0.00 in0.0 mm 0.00 in0.0 mm 0.00 in0.0 mm
08:55 PM 66.5°F19.2°C 60.2°F15.7°C 80% 2.7 mph WNW4.3 kmh WNW 5.4 mph8.7 kmh 29.89 in1012.2 mb 0.00 in0.0 mm 0.00 in0.0 mm 0.00 in0.0 mm
09:00 PM 66.5°F19.2°C 60.2°F15.7°C 80% 2.7 mph WNW4.3 kmh WNW 5.4 mph8.7 kmh 29.90 in1012.5 mb 0.00 in0.0 mm 0.00 in0.0 mm 0.00 in0.0 mm
09:05 PM 66.5°F19.2°C 60.2°F15.7°C 80% 2.2 mph WNW3.5 kmh WNW 4.9 mph7.9 kmh 29.90 in1012.5 mb 0.00 in0.0 mm 0.00 in0.0 mm 0.00 in0.0 mm
09:10 PM 66.3°F19.1°C 60.0°F15.6°C 80% 2.2 mph WNW3.5 kmh WNW 6.7 mph10.8 kmh 29.89 in1012.2 mb 0.00 in0.0 mm 0.00 in0.0 mm 0.00 in0.0 mm
09:15 PM 66.3°F19.1°C 60.0°F15.6°C 80% 2.7 mph W4.3 kmh W 6.7 mph10.8 kmh 29.90 in1012.5 mb 0.00 in0.0 mm 0.00 in0.0 mm 0.00 in0.0 mm
09:20 PM 66.3°F19.1°C 60.0°F15.6°C 80% 2.7 mph W4.3 kmh W 4.9 mph7.9 kmh 29.90 in1012.5 mb 0.00 in0.0 mm 0.00 in0.0 mm 0.00 in0.0 mm
09:25 PM 66.2°F19.0°C 60.2°F15.7°C 81% 2.2 mph W3.5 kmh W 4.5 mph7.2 kmh 29.90 in1012.5 mb 0.00 in0.0 mm 0.00 in0.0 mm 0.00 in0.0 mm
09:30 PM 66.3°F19.1°C 60.3°F15.7°C 81% 2.2 mph WNW3.5 kmh WNW 4.5 mph7.2 kmh 29.90 in1012.5 mb 0.00 in0.0 mm 0.00 in0.0 mm 0.00 in0.0 mm
09:35 PM 66.2°F19.0°C 60.2°F15.7°C 81% 2.2 mph W3.5 kmh W 4.5 mph7.2 kmh 29.91 in1012.9 mb 0.00 in0.0 mm 0.00 in0.0 mm 0.00 in0.0 mm
09:40 PM 66.2°F19.0°C 60.2°F15.7°C 81% 2.2 mph W3.5 kmh W 4.5 mph7.2 kmh 29.90 in1012.5 mb 0.00 in0.0 mm 0.00 in0.0 mm 0.00 in0.0 mm
09:45 PM 66.2°F19.0°C 60.2°F15.7°C 81% 2.2 mph W3.5 kmh W 4.5 mph7.2 kmh 29.90 in1012.5 mb 0.00 in0.0 mm 0.00 in0.0 mm 0.00 in0.0 mm
09:50 PM 66.0°F18.9°C 60.0°F15.6°C 81% 2.2 mph WNW3.5 kmh WNW 4.0 mph6.4 kmh 29.90 in1012.5 mb 0.00 in0.0 mm 0.00 in0.0 mm 0.00 in0.0 mm
09:55 PM 65.8°F18.8°C 59.8°F15.4°C 81% 2.7 mph NW4.3 kmh NW 6.3 mph10.1 kmh 29.90 in1012.5 mb 0.00 in0.0 mm 0.00 in0.0 mm 0.00 in0.0 mm
10:00 PM 65.6°F18.7°C 60.0°F15.6°C 82% 2.2 mph NW3.5 kmh NW 6.3 mph10.1 kmh 29.91 in1012.9 mb 0.00 in0.0 mm 0.00 in0.0 mm 0.00 in0.0 mm
10:05 PM 65.4°F18.6°C 59.8°F15.4°C 82% 2.2 mph WNW3.5 kmh WNW 4.0 mph6.4 kmh 29.90 in1012.5 mb 0.00 in0.0 mm 0.00 in0.0 mm 0.00 in0.0 mm
10:10 PM 65.3°F18.5°C 60.0°F15.6°C 83% 2.2 mph WNW3.5 kmh WNW 4.9 mph7.9 kmh 29.90 in1012.5 mb 0.00 in0.0 mm 0.00 in0.0 mm 0.00 in0.0 mm
10:15 PM 65.1°F18.4°C 59.8°F15.4°C 83% 2.2 mph WNW3.5 kmh WNW 4.9 mph7.9 kmh 29.90 in1012.5 mb 0.00 in0.0 mm 0.00 in0.0 mm 0.00 in0.0 mm
10:20 PM 65.1°F18.4°C 59.8°F15.4°C 83% 1.8 mph NW2.9 kmh NW 5.4 mph8.7 kmh 29.91 in1012.9 mb 0.00 in0.0 mm 0.00 in0.0 mm 0.00 in0.0 mm
10:25 PM 65.1°F18.4°C 59.8°F15.4°C 83% 2.2 mph NW3.5 kmh NW 5.4 mph8.7 kmh 29.90 in1012.5 mb 0.00 in0.0 mm 0.00 in0.0 mm 0.00 in0.0 mm
10:30 PM 65.1°F18.4°C 59.8°F15.4°C 83% 2.2 mph WNW3.5 kmh WNW 4.5 mph7.2 kmh 29.90 in1012.5 mb 0.00 in0.0 mm 0.00 in0.0 mm 0.00 in0.0 mm
10:35 PM 65.1°F18.4°C 59.8°F15.4°C 83% 2.2 mph WNW3.5 kmh WNW 4.5 mph7.2 kmh 29.90 in1012.5 mb 0.00 in0.0 mm 0.00 in0.0 mm 0.00 in0.0 mm
10:40 PM 65.1°F18.4°C 59.8°F15.4°C 83% 1.8 mph WNW2.9 kmh WNW 4.5 mph7.2 kmh 29.90 in1012.5 mb 0.00 in0.0 mm 0.00 in0.0 mm 0.00 in0.0 mm
10:45 PM 65.1°F18.4°C 59.8°F15.4°C 83% 1.8 mph WNW2.9 kmh WNW 4.0 mph6.4 kmh 29.90 in1012.5 mb 0.00 in0.0 mm 0.00 in0.0 mm 0.00 in0.0 mm
10:50 PM 65.1°F18.4°C 59.8°F15.4°C 83% 1.8 mph NW2.9 kmh NW 4.0 mph6.4 kmh 29.90 in1012.5 mb 0.00 in0.0 mm 0.00 in0.0 mm 0.00 in0.0 mm
10:55 PM 65.1°F18.4°C 59.8°F15.4°C 83% 1.8 mph NW2.9 kmh NW 4.0 mph6.4 kmh 29.90 in1012.5 mb 0.00 in0.0 mm 0.00 in0.0 mm 0.00 in0.0 mm
11:00 PM 65.1°F18.4°C 59.8°F15.4°C 83% 1.8 mph NW2.9 kmh NW 4.0 mph6.4 kmh 29.90 in1012.5 mb 0.00 in0.0 mm 0.00 in0.0 mm 0.00 in0.0 mm
11:05 PM 64.9°F18.3°C 59.7°F15.4°C 83% 2.2 mph NW3.5 kmh NW 5.8 mph9.3 kmh 29.89 in1012.2 mb 0.00 in0.0 mm 0.00 in0.0 mm 0.00 in0.0 mm
11:10 PM 64.9°F18.3°C 59.7°F15.4°C 83% 2.2 mph NW3.5 kmh NW 5.8 mph9.3 kmh 29.90 in1012.5 mb 0.00 in0.0 mm 0.00 in0.0 mm 0.00 in0.0 mm
11:15 PM 64.9°F18.3°C 59.7°F15.4°C 83% 1.8 mph NW2.9 kmh NW 4.0 mph6.4 kmh 29.89 in1012.2 mb 0.00 in0.0 mm 0.00 in0.0 mm 0.00 in0.0 mm
11:20 PM 64.7°F18.2°C 59.8°F15.4°C 84% 1.8 mph NW2.9 kmh NW 4.0 mph6.4 kmh 29.89 in1012.2 mb 0.00 in0.0 mm 0.00 in0.0 mm 0.00 in0.0 mm
11:25 PM 64.7°F18.2°C 59.8°F15.4°C 84% 1.3 mph NW2.1 kmh NW 3.1 mph5.0 kmh 29.90 in1012.5 mb 0.00 in0.0 mm 0.00 in0.0 mm 0.00 in0.0 mm
11:30 PM 64.7°F18.2°C 59.8°F15.4°C 84% 1.3 mph NW2.1 kmh NW 3.6 mph5.8 kmh 29.90 in1012.5 mb 0.00 in0.0 mm 0.00 in0.0 mm 0.00 in0.0 mm
11:35 PM 64.5°F18.1°C 59.9°F15.5°C 85% 1.8 mph NW2.9 kmh NW 3.6 mph5.8 kmh 29.90 in1012.5 mb 0.00 in0.0 mm 0.00 in0.0 mm 0.00 in0.0 mm
11:40 PM 64.5°F18.1°C 59.9°F15.5°C 85% 1.8 mph NW2.9 kmh NW 3.1 mph5.0 kmh 29.90 in1012.5 mb 0.00 in0.0 mm 0.00 in0.0 mm 0.00 in0.0 mm
11:45 PM 64.4°F18.0°C 59.8°F15.4°C 85% 1.3 mph NW2.1 kmh NW 3.1 mph5.0 kmh 29.90 in1012.5 mb 0.00 in0.0 mm 0.00 in0.0 mm 0.00 in0.0 mm
11:50 PM 64.2°F17.9°C 59.6°F15.3°C 85% 1.3 mph NNW2.1 kmh NNW 2.7 mph4.3 kmh 29.90 in1012.5 mb 0.00 in0.0 mm 0.00 in0.0 mm 0.00 in0.0 mm
11:55 PM 64.0°F17.8°C 59.8°F15.4°C 86% 0.9 mph NW1.4 kmh NW 2.7 mph4.3 kmh 29.90 in1012.5 mb 0.00 in0.0 mm 0.00 in0.0 mm 0.00 in0.0 mm